Time;durP1;ratioP1;P1;durP2;ratioP2;P2;SDS_P1;SDS_P2;PMS_P1;PMS_P2;Temp;Humidity;BMP_temperature;BMP_pressure;BME280_temperature;BME280_humidity;BME280_pressure;Samples;Min_cycle;Max_cycle;Signal;HPM_P1;HPM_P2
2022/11/21 00:01:15;;;;;;;1.73;1.00;;;;;;;6.18;100.00;96206.50;5056719;28;20230;-63
2022/11/21 00:03:42;;;;;;;1.47;1.00;;;;;;;6.23;100.00;96209.59;5059519;28;20234;-62
2022/11/21 00:06:08;;;;;;;1.23;1.00;;;;;;;6.23;100.00;96212.22;5056401;28;20217;-62
2022/11/21 00:08:36;;;;;;;0.93;0.77;;;;;;;6.25;100.00;96210.28;5058906;28;20302;-62
2022/11/21 00:11:04;;;;;;;0.80;0.80;;;;;;;6.27;100.00;96211.03;5058872;28;20249;-62
2022/11/21 00:13:32;;;;;;;0.97;0.97;;;;;;;6.30;100.00;96202.88;5058015;28;20203;-62
2022/11/21 00:16:03;;;;;;;0.90;0.90;;;;;;;6.29;100.00;96212.56;5066607;28;20237;-62
2022/11/21 00:18:32;;;;;;;1.07;0.97;;;;;;;6.26;100.00;96211.97;5077271;28;20218;-62
2022/11/21 00:21:04;;;;;;;2.27;1.07;;;;;;;6.30;100.00;96213.38;5063681;28;20242;-61
2022/11/21 00:23:30;;;;;;;1.30;0.83;;;;;;;6.25;100.00;96210.28;5063604;28;20321;-61
2022/11/21 00:25:59;;;;;;;0.67;0.67;;;;;;;6.22;100.00;96205.31;5057897;28;20263;-62
2022/11/21 00:28:27;;;;;;;0.87;0.80;;;;;;;6.30;100.00;96195.00;5059132;28;20210;-61
2022/11/21 00:30:55;;;;;;;1.20;0.60;;;;;;;6.31;100.00;96200.13;5058753;28;20249;-62
2022/11/21 00:33:22;;;;;;;1.87;0.70;;;;;;;6.37;100.00;96189.13;5055813;28;20330;-62
2022/11/21 00:35:49;;;;;;;0.67;0.67;;;;;;;6.41;100.00;96184.44;5058709;28;20272;-62
2022/11/21 00:38:16;;;;;;;0.87;0.87;;;;;;;6.37;100.00;96169.91;5064513;28;20218;-61
2022/11/21 00:40:44;;;;;;;0.70;0.70;;;;;;;6.37;100.00;96160.22;5060930;28;20218;-62
2022/11/21 00:43:12;;;;;;;1.67;0.90;;;;;;;6.39;100.00;96163.56;5065832;28;20207;-62
2022/11/21 00:45:40;;;;;;;2.67;1.00;;;;;;;6.39;100.00;96155.66;5067251;28;20643;-62
2022/11/21 00:48:08;;;;;;;0.80;0.70;;;;;;;6.41;100.00;96160.81;5055797;28;20651;-61
2022/11/21 00:50:35;;;;;;;0.73;0.73;;;;;;;6.44;100.00;96153.50;5058605;28;20695;-62
2022/11/21 00:53:02;;;;;;;0.77;0.70;;;;;;;6.44;100.00;96157.91;5055881;28;20271;-62
2022/11/21 00:55:29;;;;;;;1.40;0.90;;;;;;;6.47;100.00;96155.03;5059127;28;20230;-62
2022/11/21 00:57:56;;;;;;;0.83;0.77;;;;;;;6.48;100.00;96154.06;5069114;28;20273;-62
2022/11/21 01:00:23;;;;;;;0.70;0.70;;;;;;;6.47;100.00;96152.41;5069889;28;20194;-63
2022/11/21 01:02:50;;;;;;;1.60;1.13;;;;;;;6.47;100.00;96147.97;5097445;28;20205;-62
2022/11/21 01:05:23;;;;;;;1.70;0.90;;;;;;;6.48;100.00;96146.19;5084051;28;20179;-63
2022/11/21 01:07:51;;;;;;;1.10;0.80;;;;;;;6.49;100.00;96140.78;5073636;28;20210;-62
2022/11/21 01:10:18;;;;;;;1.30;0.90;;;;;;;6.54;100.00;96137.78;5066069;28;20356;-62
2022/11/21 01:12:44;;;;;;;0.80;0.73;;;;;;;6.55;100.00;96133.38;5060754;28;20207;-62
2022/11/21 01:15:11;;;;;;;1.17;0.87;;;;;;;6.53;100.00;96128.22;5057140;28;20207;-61
2022/11/21 01:17:38;;;;;;;0.67;0.67;;;;;;;6.57;100.00;96140.16;5056358;28;20265;-62
2022/11/21 01:20:06;;;;;;;0.70;0.70;;;;;;;6.54;100.00;96143.03;5065043;28;20344;-62
2022/11/21 01:22:36;;;;;;;0.60;0.60;;;;;;;6.53;100.00;96141.38;5059052;28;20203;-62
2022/11/21 01:25:03;;;;;;;1.30;1.20;;;;;;;6.53;100.00;96133.50;5056503;28;20221;-62
2022/11/21 01:27:30;;;;;;;1.90;0.80;;;;;;;6.51;100.00;96127.53;5057848;28;20694;-62
2022/11/21 01:29:57;;;;;;;0.73;0.73;;;;;;;6.50;100.00;96115.38;5062589;28;20203;-62
2022/11/21 01:32:25;;;;;;;2.37;0.63;;;;;;;6.52;100.00;96108.16;5060024;28;20286;-62
2022/11/21 01:34:52;;;;;;;1.10;0.80;;;;;;;6.52;100.00;96094.22;5065655;28;20252;-62
2022/11/21 01:37:18;;;;;;;1.10;0.63;;;;;;;6.53;100.00;96096.72;5060469;28;20313;-62
2022/11/21 01:39:46;;;;;;;0.60;0.60;;;;;;;6.54;100.00;96093.13;5060392;28;20203;-62
2022/11/21 01:42:13;;;;;;;1.73;0.90;;;;;;;6.58;100.00;96097.16;5065721;28;20257;-61
2022/11/21 01:44:49;;;;;;;1.90;0.90;;;;;;;6.54;100.00;96085.25;5060407;28;20235;-62
2022/11/21 01:47:16;;;;;;;0.80;0.67;;;;;;;6.52;100.00;96083.72;5060773;28;20213;-61
2022/11/21 01:49:44;;;;;;;1.43;0.80;;;;;;;6.59;100.00;96076.97;5058852;28;20247;-63
2022/11/21 01:52:15;;;;;;;2.00;0.80;;;;;;;6.59;100.00;96083.03;5057312;28;20305;-61
2022/11/21 01:54:46;;;;;;;0.80;0.70;;;;;;;6.61;100.00;96080.28;5060051;28;20246;-61
2022/11/21 01:57:16;;;;;;;1.93;0.90;;;;;;;6.65;100.00;96064.16;5055574;28;20659;-61
2022/11/21 01:59:47;;;;;;;0.57;0.57;;;;;;;6.66;100.00;96062.34;5057778;28;20210;-62
2022/11/21 02:02:17;;;;;;;0.77;0.70;;;;;;;6.68;100.00;96050.75;5061254;28;20202;-61
2022/11/21 02:04:45;;;;;;;1.27;0.80;;;;;;;6.73;100.00;96045.91;5062624;28;20258;-61
2022/11/21 02:07:13;;;;;;;0.47;0.47;;;;;;;6.80;100.00;96054.91;5055266;28;20245;-62
2022/11/21 02:09:44;;;;;;;1.10;0.90;;;;;;;6.81;100.00;96042.59;5061148;28;20249;-62
2022/11/21 02:12:17;;;;;;;0.50;0.50;;;;;;;6.84;100.00;96040.53;5062410;28;20202;-62
2022/11/21 02:14:47;;;;;;;1.50;0.60;;;;;;;6.87;100.00;96035.00;5060183;28;20243;-62
2022/11/21 02:17:14;;;;;;;0.93;0.50;;;;;;;6.85;100.00;96036.13;5062378;28;20288;-62
2022/11/21 02:19:45;;;;;;;2.37;0.70;;;;;;;6.81;100.00;96034.72;5056215;28;20222;-62
2022/11/21 02:22:16;;;;;;;1.20;0.80;;;;;;;6.80;100.00;96028.63;5060172;28;20290;-62
2022/11/21 02:24:47;;;;;;;2.30;0.63;;;;;;;6.79;100.00;96020.91;5055400;28;20250;-62
2022/11/21 02:27:18;;;;;;;0.50;0.50;;;;;;;6.82;100.00;96010.94;5065365;28;20254;-62
2022/11/21 02:29:45;;;;;;;2.40;0.80;;;;;;;6.79;100.00;96013.84;5069034;28;20249;-62
2022/11/21 02:32:21;;;;;;;1.07;0.60;;;;;;;6.76;100.00;96005.41;5059311;28;20230;-62
2022/11/21 02:34:47;;;;;;;1.27;0.47;;;;;;;6.74;100.00;96002.06;5060896;28;20239;-62
2022/11/21 02:37:14;;;;;;;0.57;0.50;;;;;;;6.81;100.00;95998.75;5061480;28;20284;-62
2022/11/21 02:39:42;;;;;;;0.77;0.60;;;;;;;6.82;100.00;95984.66;5073786;28;20207;-62
2022/11/21 02:42:15;;;;;;;1.27;0.50;;;;;;;6.80;100.00;95999.72;5075703;28;20214;-61
2022/11/21 02:44:47;;;;;;;1.70;0.60;;;;;;;6.84;100.00;95987.97;5071459;28;20202;-63
2022/11/21 02:47:14;;;;;;;2.37;0.97;;;;;;;7.00;96.08;96004.06;5072640;28;20671;-63
2022/11/21 02:49:45;;;;;;;0.90;0.50;;;;;;;6.91;97.73;95999.59;5068768;28;20612;-62
2022/11/21 02:52:12;;;;;;;0.63;0.43;;;;;;;6.98;96.40;95984.13;5076990;28;20234;-62
2022/11/21 02:54:39;;;;;;;1.83;0.80;;;;;;;6.94;97.13;95978.31;5061258;28;20234;-62
2022/11/21 02:57:06;;;;;;;0.60;0.60;;;;;;;6.94;99.42;95969.63;5058916;28;20608;-62
2022/11/21 02:59:34;;;;;;;0.97;0.53;;;;;;;6.99;99.28;95975.28;5060645;28;20238;-62
2022/11/21 03:02:02;;;;;;;1.10;0.70;;;;;;;6.98;98.02;95979.69;5064104;28;20238;-61
2022/11/21 03:04:29;;;;;;;0.80;0.60;;;;;;;6.97;97.63;95983.31;5061205;28;20216;-62
2022/11/21 03:06:57;;;;;;;1.60;0.90;;;;;;;7.01;96.75;95989.13;5070611;28;20199;-62
2022/11/21 03:09:23;;;;;;;0.63;0.43;;;;;;;6.98;98.04;95990.19;5057868;28;20242;-62
2022/11/21 03:11:50;;;;;;;1.43;0.80;;;;;;;7.03;97.99;95996.84;5058869;28;20571;-61
2022/11/21 03:14:19;;;;;;;1.67;0.87;;;;;;;7.05;98.75;95989.69;5060437;28;20670;-62
2022/11/21 03:16:45;;;;;;;2.47;0.90;;;;;;;7.05;98.11;95981.78;5071144;28;20246;-62
2022/11/21 03:19:13;;;;;;;1.57;0.70;;;;;;;7.07;98.49;95971.97;5066111;28;20368;-61
2022/11/21 03:21:41;;;;;;;1.57;0.70;;;;;;;7.04;99.79;95959.94;5062579;28;20206;-61
2022/11/21 03:24:08;;;;;;;1.57;0.70;;;;;;;7.05;99.63;95958.13;5058271;28;20264;-62
2022/11/21 03:26:35;;;;;;;1.80;0.90;;;;;;;6.98;99.74;95963.91;5059425;28;20253;-62
2022/11/21 03:29:02;;;;;;;1.53;0.97;;;;;;;7.13;97.22;95966.13;5070145;28;20203;-62
2022/11/21 03:31:30;;;;;;;2.07;0.80;;;;;;;7.09;98.29;95970.00;5080408;28;20222;-61
2022/11/21 03:33:59;;;;;;;1.53;0.70;;;;;;;7.01;99.97;95970.72;5097661;28;20217;-62
2022/11/21 03:36:28;;;;;;;1.47;0.77;;;;;;;6.91;100.00;95962.81;5081172;28;20207;-62
2022/11/21 03:38:57;;;;;;;1.10;0.63;;;;;;;7.00;100.00;95961.16;5074589;28;20293;-62
2022/11/21 03:41:32;;;;;;;2.20;1.03;;;;;;;6.91;100.00;95954.09;5063623;28;20246;-61
2022/11/21 03:44:01;;;;;;;0.90;0.80;;;;;;;6.95;99.95;95953.69;5065405;28;20210;-60
2022/11/21 03:46:29;;;;;;;1.73;0.80;;;;;;;6.98;100.00;95963.91;5058198;28;20289;-61
2022/11/21 03:49:01;;;;;;;3.67;1.00;;;;;;;6.96;100.00;95952.72;5065910;28;20206;-63
2022/11/21 03:51:30;;;;;;;3.10;0.93;;;;;;;6.89;100.00;95959.50;5067220;28;20648;-62
2022/11/21 03:53:58;;;;;;;3.97;0.90;;;;;;;6.84;100.00;95945.09;5067600;28;20621;-60
2022/11/21 03:56:25;;;;;;;1.23;0.70;;;;;;;6.85;100.00;95952.03;5056618;28;20221;-62
2022/11/21 03:58:53;;;;;;;0.70;0.70;;;;;;;6.79;100.00;95958.66;5057332;28;20223;-62
2022/11/21 04:01:21;;;;;;;1.77;1.03;;;;;;;6.75;100.00;95959.06;5060798;28;20289;-61
2022/11/21 04:03:47;;;;;;;1.90;0.60;;;;;;;6.71;100.00;95960.31;5063309;28;20235;-61
2022/11/21 04:06:16;;;;;;;1.50;0.80;;;;;;;6.74;100.00;95960.84;5066317;28;20294;-61
2022/11/21 04:08:45;;;;;;;1.70;0.60;;;;;;;6.72;100.00;95954.94;5062657;28;20295;-61
2022/11/21 04:11:12;;;;;;;2.10;1.10;;;;;;;6.73;100.00;95956.56;5061698;28;20697;-61
2022/11/21 04:13:39;;;;;;;3.30;0.90;;;;;;;6.78;100.00;95959.63;5057264;28;20227;-61
2022/11/21 04:16:07;;;;;;;3.30;1.00;;;;;;;6.70;100.00;95954.22;5071941;28;20244;-61
2022/11/21 04:18:35;;;;;;;1.60;0.87;;;;;;;6.70;100.00;95962.09;5056777;28;20259;-62
2022/11/21 04:21:06;;;;;;;2.93;0.97;;;;;;;6.66;100.00;95959.91;5061077;28;20750;-61
2022/11/21 04:23:33;;;;;;;2.30;1.20;;;;;;;6.71;100.00;95961.13;5062863;28;20526;-61
2022/11/21 04:26:02;;;;;;;2.10;1.03;;;;;;;6.67;100.00;95958.91;5060347;28;20675;-61
2022/11/21 04:28:28;;;;;;;2.77;0.97;;;;;;;6.67;100.00;95957.13;5058094;28;20214;-60
2022/11/21 04:30:55;;;;;;;1.67;1.00;;;;;;;6.77;100.00;95957.13;5057579;28;20249;-63
2022/11/21 04:33:22;;;;;;;2.00;0.93;;;;;;;6.64;100.00;95943.41;5056193;28;20274;-62
2022/11/21 04:35:48;;;;;;;1.57;1.17;;;;;;;6.62;100.00;95946.19;5057744;28;20246;-62
2022/11/21 04:38:15;;;;;;;2.00;1.20;;;;;;;6.66;100.00;95952.81;5057853;28;20615;-61
2022/11/21 04:40:44;;;;;;;1.57;1.10;;;;;;;6.58;100.00;95960.56;5058072;28;20238;-61
2022/11/21 04:43:12;;;;;;;2.00;0.70;;;;;;;6.60;100.00;95961.25;5067007;28;20207;-60
2022/11/21 04:45:38;;;;;;;1.73;1.17;;;;;;;6.59;100.00;95959.59;5057960;28;20280;-61
2022/11/21 04:48:07;;;;;;;2.80;1.10;;;;;;;6.57;100.00;95961.53;5061830;28;20203;-61
2022/11/21 04:50:34;;;;;;;1.20;1.03;;;;;;;6.56;100.00;95962.47;5056390;28;20292;-61
2022/11/21 04:53:01;;;;;;;3.57;1.33;;;;;;;6.56;100.00;95959.84;5057464;28;20239;-61
2022/11/21 04:55:32;;;;;;;1.53;1.00;;;;;;;6.48;100.00;95964.97;5068262;28;20215;-61
2022/11/21 04:58:01;;;;;;;3.37;1.10;;;;;;;6.43;100.00;95946.16;5055707;28;20211;-61
2022/11/21 05:00:29;;;;;;;2.40;1.20;;;;;;;6.44;100.00;95939.94;5060516;28;20245;-61
2022/11/21 05:03:02;;;;;;;3.40;1.47;;;;;;;6.44;100.00;95945.19;5056051;28;20234;-62
2022/11/21 05:05:30;;;;;;;2.17;1.00;;;;;;;6.53;100.00;95935.66;5063316;28;20207;-62
2022/11/21 05:07:57;;;;;;;1.87;1.10;;;;;;;6.51;100.00;95927.94;5065239;28;20211;-63
2022/11/21 05:10:24;;;;;;;4.43;1.10;;;;;;;6.47;100.00;95940.50;5071837;28;20210;-62
2022/11/21 05:15:50;;;;;;;1.53;0.90;;;;;;;6.46;100.00;95938.00;5066915;28;20316;-61
2022/11/21 05:18:18;;;;;;;1.37;0.90;;;;;;;6.48;100.00;95941.34;5067895;28;20206;-61
2022/11/21 05:20:45;;;;;;;1.50;1.10;;;;;;;6.46;100.00;95938.00;5072744;28;20260;-62
2022/11/21 05:23:12;;;;;;;0.80;0.73;;;;;;;6.44;100.00;95948.66;5071089;28;20844;-61
2022/11/21 05:25:39;;;;;;;1.57;1.20;;;;;;;6.38;100.00;95953.59;5059927;28;20237;-62
2022/11/21 05:28:06;;;;;;;2.30;1.50;;;;;;;6.43;100.00;95951.41;5054415;28;20246;-61
2022/11/21 05:30:32;;;;;;;3.70;1.63;;;;;;;6.38;100.00;95943.09;5054579;28;20333;-61
2022/11/21 05:33:00;;;;;;;1.60;1.00;;;;;;;6.47;100.00;95953.63;5054106;28;20684;-61
2022/11/21 05:35:27;;;;;;;4.40;1.40;;;;;;;6.45;100.00;95955.53;5054234;28;20258;-61
2022/11/21 05:37:56;;;;;;;2.13;1.10;;;;;;;6.49;100.00;95950.84;5061122;28;20657;-62
2022/11/21 05:40:23;;;;;;;2.07;1.23;;;;;;;6.53;100.00;95959.28;5053755;28;20306;-62
2022/11/21 05:45:34;;;;;;;3.50;1.37;;;;;;;6.58;100.00;95947.44;5060644;28;20295;-61
2022/11/21 05:48:06;;;;;;;2.40;1.07;;;;;;;6.56;100.00;95962.47;5058912;28;20248;-62
2022/11/21 05:50:33;;;;;;;1.57;0.90;;;;;;;6.57;100.00;95964.16;5061956;28;20206;-63
2022/11/21 05:53:01;;;;;;;2.90;1.00;;;;;;;6.70;100.00;95958.63;5059634;28;20290;-62
2022/11/21 05:55:29;;;;;;;4.30;1.40;;;;;;;6.62;100.00;95969.84;5057691;28;20602;-64
2022/11/21 05:57:58;;;;;;;2.87;1.07;;;;;;;6.64;100.00;95975.78;5067489;28;20213;-63
2022/11/21 06:00:25;;;;;;;3.47;1.50;;;;;;;6.70;100.00;95969.13;5083570;28;20200;-63
2022/11/21 06:05:38;;;;;;;1.90;0.90;;;;;;;6.71;100.00;95966.38;5080482;28;20217;-63
2022/11/21 06:08:07;;;;;;;1.70;0.70;;;;;;;6.69;100.00;95967.50;5060746;28;20214;-63
2022/11/21 06:10:34;;;;;;;2.97;1.10;;;;;;;6.70;100.00;95959.47;5068430;28;20231;-63
2022/11/21 06:13:01;;;;;;;3.73;1.07;;;;;;;6.75;100.00;95954.66;5065406;28;20282;-63
2022/11/21 06:15:28;;;;;;;1.43;0.93;;;;;;;6.76;100.00;95958.94;5065677;28;20253;-63
2022/11/21 06:17:57;;;;;;;2.60;1.27;;;;;;;6.72;100.00;95952.28;5074201;28;20256;-63
2022/11/21 06:20:24;;;;;;;3.07;1.20;;;;;;;6.74;100.00;95945.09;5070005;28;20256;-63
2022/11/21 06:22:54;;;;;;;3.40;1.50;;;;;;;6.69;100.00;95949.94;5073964;28;20249;-64
2022/11/21 06:25:21;;;;;;;2.50;0.80;;;;;;;6.77;100.00;95950.06;5069852;28;20207;-63
2022/11/21 06:27:48;;;;;;;4.07;1.27;;;;;;;6.76;100.00;95945.81;5068306;28;20223;-63
2022/11/21 06:30:15;;;;;;;1.60;1.33;;;;;;;6.77;100.00;95949.22;5065526;28;20248;-63
2022/11/21 06:32:42;;;;;;;3.00;1.20;;;;;;;6.76;100.00;95948.44;5059380;28;20320;-63
2022/11/21 06:35:09;;;;;;;3.50;1.93;;;;;;;6.75;100.00;95938.88;5067599;28;20644;-63
2022/11/21 06:37:35;;;;;;;2.40;1.33;;;;;;;6.78;100.00;95943.84;5066471;28;20203;-63
2022/11/21 06:40:04;;;;;;;1.40;1.00;;;;;;;6.79;100.00;95950.78;5064714;28;20227;-63
2022/11/21 06:42:32;;;;;;;7.80;5.53;;;;;;;6.80;100.00;95941.91;5069918;28;20241;-63
2022/11/21 06:44:59;;;;;;;4.73;2.20;;;;;;;6.84;100.00;95948.56;5065630;28;20679;-63
2022/11/21 06:47:25;;;;;;;1.77;1.20;;;;;;;6.85;99.21;95944.97;5057672;28;20308;-62
2022/11/21 06:49:52;;;;;;;2.60;1.00;;;;;;;6.83;98.35;95952.19;5067244;28;20226;-62
2022/11/21 06:52:19;;;;;;;4.90;1.30;;;;;;;6.83;98.30;95951.34;5058593;28;20257;-62
2022/11/21 06:54:46;;;;;;;2.57;1.07;;;;;;;6.80;100.00;95954.25;5067247;28;20290;-63
2022/11/21 06:57:19;;;;;;;2.80;1.30;;;;;;;6.82;97.88;95955.75;5057899;28;20286;-63
2022/11/21 06:59:46;;;;;;;1.80;1.00;;;;;;;6.82;99.10;95950.50;5065941;28;20307;-63
2022/11/21 07:02:13;;;;;;;2.00;1.03;;;;;;;6.84;100.00;95945.94;5063544;28;20203;-63
2022/11/21 07:04:40;;;;;;;1.67;1.20;;;;;;;6.84;100.00;95948.56;5063725;28;20235;-63
2022/11/21 07:07:08;;;;;;;3.07;1.30;;;;;;;6.87;100.00;95956.16;5065839;28;20206;-63
2022/11/21 07:09:35;;;;;;;2.80;1.00;;;;;;;6.88;100.00;95947.31;5077770;28;20230;-63
2022/11/21 07:14:46;;;;;;;2.97;1.23;;;;;;;6.92;100.00;95938.19;5072969;28;20206;-63
2022/11/21 07:17:13;;;;;;;1.83;1.10;;;;;;;6.94;100.00;95936.25;5072406;28;20274;-63
2022/11/21 07:19:40;;;;;;;3.03;1.27;;;;;;;7.01;100.00;95947.06;5074811;28;20227;-63
2022/11/21 07:22:08;;;;;;;2.00;1.03;;;;;;;7.06;100.00;95939.56;5071029;28;20206;-63
2022/11/21 07:24:37;;;;;;;2.30;1.07;;;;;;;7.10;99.08;95940.13;5079304;28;20214;-61
2022/11/21 07:27:04;;;;;;;4.13;1.60;;;;;;;7.15;98.12;95927.41;5081092;28;20347;-63
2022/11/21 07:29:31;;;;;;;1.90;1.37;;;;;;;7.17;99.21;95930.72;5065801;28;20207;-63
2022/11/21 07:31:59;;;;;;;4.50;1.50;;;;;;;7.19;99.55;95923.53;5062759;28;20202;-63
2022/11/21 07:34:26;;;;;;;3.70;1.23;;;;;;;7.24;98.25;95924.75;5076907;28;20249;-63
2022/11/21 07:36:53;;;;;;;2.93;1.27;;;;;;;7.24;94.87;95919.50;5075393;28;20207;-62
2022/11/21 07:39:20;;;;;;;1.20;0.70;;;;;;;7.26;96.31;95908.84;5076563;28;20226;-63
2022/11/21 07:41:48;;;;;;;2.10;0.77;;;;;;;7.30;95.63;95911.03;5069576;28;20218;-63
2022/11/21 07:44:15;;;;;;;3.23;1.30;;;;;;;7.32;94.51;95900.41;5075592;28;20215;-62
2022/11/21 07:46:42;;;;;;;1.93;1.07;;;;;;;7.33;94.09;95904.69;5074219;28;20756;-65
2022/11/21 07:49:11;;;;;;;2.40;0.80;;;;;;;7.33;94.20;95899.44;5076178;28;20214;-63
2022/11/21 07:51:38;;;;;;;1.30;0.80;;;;;;;7.31;93.71;95890.84;5085840;28;20559;-63
2022/11/21 07:54:05;;;;;;;1.97;1.23;;;;;;;7.35;93.36;95887.78;5077692;28;20465;-63
2022/11/21 07:56:31;;;;;;;2.13;0.90;;;;;;;7.35;94.51;95887.78;5075150;28;20253;-63
2022/11/21 07:58:58;;;;;;;2.90;1.37;;;;;;;7.36;94.43;95888.63;5070392;28;20258;-64
2022/11/21 08:01:24;;;;;;;2.93;1.03;;;;;;;7.27;95.05;95885.03;5074657;28;20248;-63
2022/11/21 08:03:51;;;;;;;4.73;0.90;;;;;;;7.29;95.20;95877.84;5066987;28;20293;-63
2022/11/21 08:06:20;;;;;;;2.57;0.93;;;;;;;7.25;93.66;95876.47;5070437;28;20210;-63
2022/11/21 08:08:47;;;;;;;2.37;1.20;;;;;;;7.28;93.57;95880.59;5067143;28;20290;-63
2022/11/21 08:11:14;;;;;;;1.87;0.87;;;;;;;7.27;96.12;95874.50;5070395;28;20286;-63
2022/11/21 08:13:41;;;;;;;5.23;1.37;;;;;;;7.29;94.58;95882.28;5067124;28;20239;-64
2022/11/21 08:16:08;;;;;;;4.10;1.37;;;;;;;7.36;93.78;95881.56;5077251;28;20199;-63
2022/11/21 08:18:34;;;;;;;2.03;1.07;;;;;;;7.43;91.95;95885.28;5071165;28;20211;-63
2022/11/21 08:21:02;;;;;;;4.60;1.30;;;;;;;7.53;91.13;95885.25;5064212;28;20282;-64
2022/11/21 08:23:31;;;;;;;2.90;1.10;;;;;;;7.61;90.93;95893.28;5067543;28;20264;-63
2022/11/21 08:25:58;;;;;;;1.00;0.60;;;;;;;7.72;89.81;95885.19;5061249;28;20290;-63
2022/11/21 08:28:24;;;;;;;3.00;0.70;;;;;;;7.87;88.22;95878.47;5065337;28;20551;-63
2022/11/21 08:30:51;;;;;;;3.57;1.20;;;;;;;7.90;89.40;95872.91;5064812;28;20252;-63
2022/11/21 08:33:18;;;;;;;1.70;1.27;;;;;;;7.97;88.90;95863.47;5075702;28;20296;-62
2022/11/21 08:35:45;;;;;;;2.57;1.23;;;;;;;8.09;89.29;95865.91;5077015;28;20334;-64
2022/11/21 08:38:12;;;;;;;1.30;0.90;;;;;;;8.22;90.12;95863.78;5074650;28;20214;-64
2022/11/21 08:40:40;;;;;;;1.97;0.80;;;;;;;8.37;87.64;95865.78;5066599;28;20236;-63
2022/11/21 08:43:08;;;;;;;4.23;1.13;;;;;;;8.44;84.75;95863.38;5082894;28;20217;-64
2022/11/21 08:45:35;;;;;;;2.33;0.80;;;;;;;8.53;86.15;95846.69;5073165;28;20207;-63
2022/11/21 08:48:03;;;;;;;2.60;0.97;;;;;;;8.72;83.31;95846.50;5073136;28;20207;-63
2022/11/21 08:50:30;;;;;;;2.53;0.93;;;;;;;8.79;79.31;95842.28;5073970;28;20206;-64
2022/11/21 08:53:00;;;;;;;2.17;1.20;;;;;;;9.10;79.18;95826.06;5071472;28;20290;-64
2022/11/21 08:55:26;;;;;;;3.60;1.10;;;;;;;9.37;79.71;95826.75;5087888;28;20270;-64
2022/11/21 08:57:54;;;;;;;3.57;1.10;;;;;;;9.49;78.40;95828.13;5085148;28;20206;-62
2022/11/21 09:00:21;;;;;;;2.67;0.93;;;;;;;9.82;78.29;95833.59;5081482;28;20588;-63
2022/11/21 09:02:48;;;;;;;1.03;0.70;;;;;;;10.20;75.21;95833.09;5076489;28;20234;-63
2022/11/21 09:05:16;;;;;;;2.40;0.90;;;;;;;10.44;74.71;95832.38;5073553;28;20631;-62
2022/11/21 09:07:43;;;;;;;2.13;0.87;;;;;;;10.80;73.83;95839.03;5062297;28;20211;-63
2022/11/21 09:10:10;;;;;;;2.07;0.90;;;;;;;10.86;69.18;95835.72;5056465;28;20243;-64
2022/11/21 09:12:37;;;;;;;1.80;1.00;;;;;;;11.09;71.04;95840.38;5056411;28;20288;-62
2022/11/21 09:20:41;;;;;;;2.33;0.87;;;;;;;10.94;68.72;95822.53;5069598;28;20292;-63
2022/11/21 09:23:09;;;;;;;2.53;0.77;;;;;;;10.65;69.77;95819.50;5072589;28;20190;-64
2022/11/21 09:25:36;;;;;;;4.03;0.83;;;;;;;10.34;71.35;95805.25;5074172;28;20202;-64
2022/11/21 09:28:04;;;;;;;2.53;0.90;;;;;;;10.02;72.12;95800.69;5074551;28;20287;-65
2022/11/21 09:30:37;;;;;;;2.40;1.10;;;;;;;9.96;73.00;95794.19;5074143;28;20202;-64
2022/11/21 09:33:06;;;;;;;1.20;1.00;;;;;;;10.10;73.47;95784.84;5058721;28;20235;-64
2022/11/21 09:35:33;;;;;;;2.37;0.70;;;;;;;10.22;72.40;95788.03;5065687;28;20207;-63
2022/11/21 09:37:59;;;;;;;2.57;0.80;;;;;;;10.37;73.32;95797.84;5087739;28;20206;-63
2022/11/21 09:40:26;;;;;;;1.33;0.80;;;;;;;10.34;72.94;95794.69;5080805;28;20234;-64
2022/11/21 09:43:30;;;;;;;3.00;1.17;;;;;;;10.44;71.26;95792.72;5066167;28;20211;-64
2022/11/21 09:46:01;;;;;;;1.97;0.93;;;;;;;10.34;71.29;95792.88;5065655;28;20221;-63
2022/11/21 09:48:32;;;;;;;3.00;0.87;;;;;;;10.39;70.58;95773.88;5057471;28;20199;-63
2022/11/21 09:51:03;;;;;;;1.20;0.90;;;;;;;10.40;70.22;95770.25;5056616;28;20229;-61
2022/11/21 09:53:32;;;;;;;1.87;0.90;;;;;;;10.49;71.26;95763.97;5056797;28;20210;-63
2022/11/21 09:56:00;;;;;;;1.73;0.80;;;;;;;10.51;71.77;95746.13;5069147;28;20269;-62
2022/11/21 09:58:31;;;;;;;2.47;0.87;;;;;;;10.57;71.28;95736.72;5073756;28;20202;-63
2022/11/21 10:00:59;;;;;;;2.07;1.03;;;;;;;10.65;70.69;95721.69;5062703;28;20246;-62
2022/11/21 10:03:27;;;;;;;2.00;0.80;;;;;;;10.52;69.80;95721.38;5072645;28;20241;-62
2022/11/21 10:05:56;;;;;;;1.97;0.77;;;;;;;10.59;69.67;95721.53;5066715;28;20195;-63
2022/11/21 10:08:30;;;;;;;1.07;0.83;;;;;;;10.72;71.29;95713.91;5060743;28;20280;-63
2022/11/21 10:11:03;;;;;;;1.93;1.13;;;;;;;10.70;69.95;95706.13;5060479;28;20277;-64
2022/11/21 10:13:46;;;;;;;1.30;0.80;;;;;;;10.93;72.45;95709.75;5061155;28;20253;-64
2022/11/21 10:16:21;;;;;;;0.80;0.60;;;;;;;11.22;72.14;95709.22;5063591;28;20261;-62
2022/11/21 10:19:14;;;;;;;1.00;0.80;;;;;;;11.58;67.68;95693.69;5060001;28;20195;-63
2022/11/21 10:22:00;;;;;;;1.17;0.73;;;;;;;11.89;66.15;95688.44;5061278;28;20227;-63
2022/11/21 10:24:41;;;;;;;2.30;0.97;;;;;;;12.01;65.26;95688.88;5056660;28;20231;-63
2022/11/21 10:27:13;;;;;;;1.70;0.80;;;;;;;12.29;65.99;95690.00;5065265;28;20246;-63
2022/11/21 10:29:43;;;;;;;2.93;0.93;;;;;;;12.51;65.48;95685.66;5063703;28;20202;-63
2022/11/21 10:32:19;;;;;;;2.90;1.20;;;;;;;12.51;63.37;95675.88;5061132;28;20282;-63
2022/11/21 10:34:46;;;;;;;2.53;0.90;;;;;;;12.49;64.60;95662.00;5062668;28;20249;-63
2022/11/21 10:37:16;;;;;;;1.50;0.80;;;;;;;12.45;63.84;95650.94;5060793;28;20264;-62
2022/11/21 10:39:45;;;;;;;1.17;0.60;;;;;;;12.21;64.60;95647.66;5068129;28;20261;-63
2022/11/21 10:42:18;;;;;;;1.03;0.73;;;;;;;12.11;64.00;95641.75;5064872;28;20258;-63
2022/11/21 10:47:36;;;;;;;1.87;0.87;;;;;;;11.79;66.84;95638.34;5068919;28;20211;-63
2022/11/21 10:50:12;;;;;;;3.23;0.80;;;;;;;11.65;66.54;95627.63;5062789;28;20226;-63
2022/11/21 10:52:43;;;;;;;2.80;1.00;;;;;;;11.58;65.03;95619.56;5078520;28;20191;-64
2022/11/21 10:55:10;;;;;;;2.73;0.87;;;;;;;11.49;65.27;95610.81;5069137;28;20691;-63
2022/11/21 10:57:40;;;;;;;1.57;0.90;;;;;;;11.53;64.63;95590.13;5074627;28;20198;-63
2022/11/21 11:00:24;;;;;;;1.73;0.90;;;;;;;11.61;66.71;95582.13;5070673;28;20619;-63
2022/11/21 11:03:07;;;;;;;2.37;0.70;;;;;;;11.46;65.24;95582.06;5065449;28;20268;-62
2022/11/21 11:05:36;;;;;;;1.57;0.70;;;;;;;11.51;65.14;95570.94;5057865;28;20218;-62
2022/11/21 11:08:09;;;;;;;1.37;0.80;;;;;;;11.51;65.09;95567.47;5057732;28;20245;-62
2022/11/21 11:10:38;;;;;;;2.43;0.67;;;;;;;11.55;65.95;95556.34;5057050;28;20290;-63
2022/11/21 11:16:03;;;;;;;1.10;0.60;;;;;;;11.49;67.78;95539.34;5057467;28;20198;-64
2022/11/21 11:18:32;;;;;;;0.93;0.60;;;;;;;11.56;66.42;95530.69;5057682;28;20258;-63
2022/11/21 11:21:18;;;;;;;1.00;0.67;;;;;;;11.66;67.33;95510.91;5057252;28;20269;-63
2022/11/21 11:23:45;;;;;;;1.33;0.80;;;;;;;11.69;66.67;95510.56;5067070;28;20213;-63
2022/11/21 11:26:27;;;;;;;1.73;1.03;;;;;;;11.61;67.96;95510.66;5071190;28;20230;-63
2022/11/21 11:28:55;;;;;;;1.57;0.50;;;;;;;11.71;68.95;95505.97;5070766;28;20195;-63
2022/11/21 11:31:24;;;;;;;2.87;0.70;;;;;;;11.77;66.86;95491.16;5073876;28;20642;-63
2022/11/21 11:33:53;;;;;;;2.23;0.77;;;;;;;11.71;66.65;95482.13;5061532;28;20226;-63
2022/11/21 11:36:32;;;;;;;1.07;0.73;;;;;;;11.64;64.87;95485.63;5066810;28;20245;-63
2022/11/21 11:39:00;;;;;;;1.80;0.80;;;;;;;11.51;63.15;95473.00;5057185;28;20637;-63
2022/11/21 11:47:31;;;;;;;1.63;0.70;;;;;;;11.64;62.45;95454.69;5057050;28;20206;-63
2022/11/21 11:50:11;;;;;;;1.30;0.50;;;;;;;11.54;63.85;95451.47;5056301;28;20754;-63
2022/11/21 11:52:43;;;;;;;1.10;0.43;;;;;;;11.46;64.33;95451.50;5056452;28;20245;-63
2022/11/21 11:55:17;;;;;;;1.73;0.73;;;;;;;11.35;63.94;95442.16;5055906;28;20226;-63
2022/11/21 11:57:44;;;;;;;1.93;0.73;;;;;;;11.35;65.46;95446.63;5062116;28;20223;-63
2022/11/21 12:00:23;;;;;;;1.53;0.90;;;;;;;11.36;64.97;95437.69;5072214;28;20227;-63
2022/11/21 12:03:00;;;;;;;1.60;0.70;;;;;;;11.29;67.44;95439.41;5058467;28;20612;-63
2022/11/21 12:05:30;;;;;;;1.10;0.83;;;;;;;11.22;69.26;95431.34;5074647;28;20264;-63
2022/11/21 12:08:06;;;;;;;2.33;0.90;;;;;;;11.17;68.37;95417.00;5060388;28;20215;-63
2022/11/21 12:12:05;;;;;;;1.67;0.80;;;;;;;11.15;66.85;95408.41;5055539;28;20213;-63
2022/11/21 12:13:28;;;;;;;1.57;0.90;;;;;;;11.11;67.00;95401.84;5070624;28;20212;-63